sensor_id;sensor_type;location;lat;lon;timestamp;P1;P2;P0
49708;PMS5003;35601;55.902;13.606;2022-12-20T00:00:10;12;10;
49708;PMS5003;35601;55.902;13.606;2022-12-20T00:02:35;18;17;
49708;PMS5003;35601;55.902;13.606;2022-12-20T00:05:01;18;13;
49708;PMS5003;35601;55.902;13.606;2022-12-20T00:07:26;15;13;
49708;PMS5003;35601;55.902;13.606;2022-12-20T00:09:51;16;13;
49708;PMS5003;35601;55.902;13.606;2022-12-20T00:12:17;18;15;
49708;PMS5003;35601;55.902;13.606;2022-12-20T00:14:42;15;15;
49708;PMS5003;35601;55.902;13.606;2022-12-20T00:17:08;19;18;
49708;PMS5003;35601;55.902;13.606;2022-12-20T00:19:33;22;18;
49708;PMS5003;35601;55.902;13.606;2022-12-20T00:21:58;17;17;
49708;PMS5003;35601;55.902;13.606;2022-12-20T00:24:23;22;18;
49708;PMS5003;35601;55.902;13.606;2022-12-20T00:26:48;23;17;
49708;PMS5003;35601;55.902;13.606;2022-12-20T00:29:14;35;22;
49708;PMS5003;35601;55.902;13.606;2022-12-20T00:31:39;30;22;
49708;PMS5003;35601;55.902;13.606;2022-12-20T00:34:05;41;24;
49708;PMS5003;35601;55.902;13.606;2022-12-20T00:36:30;31;26;
49708;PMS5003;35601;55.902;13.606;2022-12-20T00:38:55;40;31;
49708;PMS5003;35601;55.902;13.606;2022-12-20T00:41:22;40;31;
49708;PMS5003;35601;55.902;13.606;2022-12-20T00:43:47;32;27;
49708;PMS5003;35601;55.902;13.606;2022-12-20T00:46:13;29;23;
49708;PMS5003;35601;55.902;13.606;2022-12-20T00:48:38;28;26;
49708;PMS5003;35601;55.902;13.606;2022-12-20T00:51:04;34;28;
49708;PMS5003;35601;55.902;13.606;2022-12-20T00:53:29;34;28;
49708;PMS5003;35601;55.902;13.606;2022-12-20T00:55:54;32;24;
49708;PMS5003;35601;55.902;13.606;2022-12-20T00:58:19;28;22;
49708;PMS5003;35601;55.902;13.606;2022-12-20T01:00:44;19;18;
49708;PMS5003;35601;55.902;13.606;2022-12-20T01:03:09;26;23;
49708;PMS5003;35601;55.902;13.606;2022-12-20T01:05:35;26;21;
49708;PMS5003;35601;55.902;13.606;2022-12-20T01:08:00;27;21;
49708;PMS5003;35601;55.902;13.606;2022-12-20T01:10:26;21;18;
49708;PMS5003;35601;55.902;13.606;2022-12-20T01:12:52;23;23;
49708;PMS5003;35601;55.902;13.606;2022-12-20T01:15:17;21;18;
49708;PMS5003;35601;55.902;13.606;2022-12-20T01:17:42;30;23;
49708;PMS5003;35601;55.902;13.606;2022-12-20T01:20:08;22;19;
49708;PMS5003;35601;55.902;13.606;2022-12-20T01:22:33;27;22;
49708;PMS5003;35601;55.902;13.606;2022-12-20T01:24:59;24;22;
49708;PMS5003;35601;55.902;13.606;2022-12-20T01:27:25;32;28;
49708;PMS5003;35601;55.902;13.606;2022-12-20T01:29:50;58;30;
49708;PMS5003;35601;55.902;13.606;2022-12-20T01:32:15;53;32;
49708;PMS5003;35601;55.902;13.606;2022-12-20T01:34:41;55;33;
49708;PMS5003;35601;55.902;13.606;2022-12-20T01:37:07;47;32;
49708;PMS5003;35601;55.902;13.606;2022-12-20T01:39:32;60;38;
49708;PMS5003;35601;55.902;13.606;2022-12-20T01:41:57;75;40;
49708;PMS5003;35601;55.902;13.606;2022-12-20T01:46:48;57;36;
49708;PMS5003;35601;55.902;13.606;2022-12-20T01:49:15;51;37;
49708;PMS5003;35601;55.902;13.606;2022-12-20T01:51:40;54;42;
49708;PMS5003;35601;55.902;13.606;2022-12-20T01:54:05;68;38;
49708;PMS5003;35601;55.902;13.606;2022-12-20T01:56:30;52;39;
49708;PMS5003;35601;55.902;13.606;2022-12-20T01:58:55;48;35;
49708;PMS5003;35601;55.902;13.606;2022-12-20T02:01:21;38;31;
49708;PMS5003;35601;55.902;13.606;2022-12-20T02:03:46;55;35;
49708;PMS5003;35601;55.902;13.606;2022-12-20T02:06:13;43;33;
49708;PMS5003;35601;55.902;13.606;2022-12-20T02:08:38;32;27;
49708;PMS5003;35601;55.902;13.606;2022-12-20T02:11:05;36;32;
49708;PMS5003;35601;55.902;13.606;2022-12-20T02:13:31;39;32;
49708;PMS5003;35601;55.902;13.606;2022-12-20T02:15:54;38;31;
49708;PMS5003;35601;55.902;13.606;2022-12-20T02:18:21;48;37;
49708;PMS5003;35601;55.902;13.606;2022-12-20T02:20:48;44;35;
49708;PMS5003;35601;55.902;13.606;2022-12-20T02:23:15;51;42;
49708;PMS5003;35601;55.902;13.606;2022-12-20T02:25:41;60;41;
49708;PMS5003;35601;55.902;13.606;2022-12-20T02:28:02;59;42;
49708;PMS5003;35601;55.902;13.606;2022-12-20T02:30:30;61;43;
49708;PMS5003;35601;55.902;13.606;2022-12-20T02:32:56;55;45;
49708;PMS5003;35601;55.902;13.606;2022-12-20T02:35:20;58;51;
49708;PMS5003;35601;55.902;13.606;2022-12-20T02:37:47;57;42;
49708;PMS5003;35601;55.902;13.606;2022-12-20T02:40:10;62;50;
49708;PMS5003;35601;55.902;13.606;2022-12-20T02:42:35;76;52;
49708;PMS5003;35601;55.902;13.606;2022-12-20T02:45:02;79;55;
49708;PMS5003;35601;55.902;13.606;2022-12-20T02:47:28;68;48;
49708;PMS5003;35601;55.902;13.606;2022-12-20T02:49:52;61;45;
49708;PMS5003;35601;55.902;13.606;2022-12-20T02:52:18;75;55;
49708;PMS5003;35601;55.902;13.606;2022-12-20T02:54:44;56;46;
49708;PMS5003;35601;55.902;13.606;2022-12-20T02:57:10;64;50;
49708;PMS5003;35601;55.902;13.606;2022-12-20T02:59:35;54;49;
49708;PMS5003;35601;55.902;13.606;2022-12-20T03:02:00;68;53;
49708;PMS5003;35601;55.902;13.606;2022-12-20T03:04:26;61;52;
49708;PMS5003;35601;55.902;13.606;2022-12-20T03:06:56;68;51;
49708;PMS5003;35601;55.902;13.606;2022-12-20T03:09:16;59;44;
49708;PMS5003;35601;55.902;13.606;2022-12-20T03:11:41;63;50;
49708;PMS5003;35601;55.902;13.606;2022-12-20T03:14:06;52;43;
49708;PMS5003;35601;55.902;13.606;2022-12-20T03:16:32;61;45;
49708;PMS5003;35601;55.902;13.606;2022-12-20T03:18:57;56;45;
49708;PMS5003;35601;55.902;13.606;2022-12-20T03:21:22;50;42;
49708;PMS5003;35601;55.902;13.606;2022-12-20T03:23:47;63;44;
49708;PMS5003;35601;55.902;13.606;2022-12-20T03:26:12;52;44;
49708;PMS5003;35601;55.902;13.606;2022-12-20T03:28:38;45;39;
49708;PMS5003;35601;55.902;13.606;2022-12-20T03:31:04;51;45;
49708;PMS5003;35601;55.902;13.606;2022-12-20T03:33:29;45;37;
49708;PMS5003;35601;55.902;13.606;2022-12-20T03:35:55;46;42;
49708;PMS5003;35601;55.902;13.606;2022-12-20T03:38:20;39;35;
49708;PMS5003;35601;55.902;13.606;2022-12-20T03:40:45;33;30;
49708;PMS5003;35601;55.902;13.606;2022-12-20T03:43:11;32;30;
49708;PMS5003;35601;55.902;13.606;2022-12-20T03:45:36;40;31;
49708;PMS5003;35601;55.902;13.606;2022-12-20T03:48:02;39;36;
49708;PMS5003;35601;55.902;13.606;2022-12-20T03:50:28;39;30;
49708;PMS5003;35601;55.902;13.606;2022-12-20T03:52:52;33;26;
49708;PMS5003;35601;55.902;13.606;2022-12-20T03:55:18;30;24;
49708;PMS5003;35601;55.902;13.606;2022-12-20T03:57:44;38;33;
49708;PMS5003;35601;55.902;13.606;2022-12-20T04:00:10;38;28;
49708;PMS5003;35601;55.902;13.606;2022-12-20T04:02:35;34;28;
49708;PMS5003;35601;55.902;13.606;2022-12-20T04:05:00;31;28;
49708;PMS5003;35601;55.902;13.606;2022-12-20T04:07:25;36;31;
49708;PMS5003;35601;55.902;13.606;2022-12-20T04:09:51;38;31;
49708;PMS5003;35601;55.902;13.606;2022-12-20T04:12:16;27;23;
49708;PMS5003;35601;55.902;13.606;2022-12-20T04:14:42;32;28;
49708;PMS5003;35601;55.902;13.606;2022-12-20T04:17:07;39;34;
49708;PMS5003;35601;55.902;13.606;2022-12-20T04:19:32;33;30;
49708;PMS5003;35601;55.902;13.606;2022-12-20T04:21:57;38;31;
49708;PMS5003;35601;55.902;13.606;2022-12-20T04:24:23;32;29;
49708;PMS5003;35601;55.902;13.606;2022-12-20T04:26:48;34;26;
49708;PMS5003;35601;55.902;13.606;2022-12-20T04:29:14;35;32;
49708;PMS5003;35601;55.902;13.606;2022-12-20T04:31:40;37;34;
49708;PMS5003;35601;55.902;13.606;2022-12-20T04:34:05;31;28;
49708;PMS5003;35601;55.902;13.606;2022-12-20T04:36:30;35;29;
49708;PMS5003;35601;55.902;13.606;2022-12-20T04:38:56;40;34;
49708;PMS5003;35601;55.902;13.606;2022-12-20T04:41:21;58;36;
49708;PMS5003;35601;55.902;13.606;2022-12-20T04:43:47;47;37;
49708;PMS5003;35601;55.902;13.606;2022-12-20T04:46:12;44;35;
49708;PMS5003;35601;55.902;13.606;2022-12-20T04:48:38;35;31;
49708;PMS5003;35601;55.902;13.606;2022-12-20T04:51:03;45;36;
49708;PMS5003;35601;55.902;13.606;2022-12-20T04:53:29;58;43;
49708;PMS5003;35601;55.902;13.606;2022-12-20T04:55:54;52;40;
49708;PMS5003;35601;55.902;13.606;2022-12-20T04:58:19;50;36;
49708;PMS5003;35601;55.902;13.606;2022-12-20T05:00:45;43;34;
49708;PMS5003;35601;55.902;13.606;2022-12-20T05:03:10;40;33;
49708;PMS5003;35601;55.902;13.606;2022-12-20T05:05:36;32;32;
49708;PMS5003;35601;55.902;13.606;2022-12-20T05:08:01;46;34;
49708;PMS5003;35601;55.902;13.606;2022-12-20T05:10:27;36;29;
49708;PMS5003;35601;55.902;13.606;2022-12-20T05:12:52;45;39;
49708;PMS5003;35601;55.902;13.606;2022-12-20T05:15:17;46;35;
49708;PMS5003;35601;55.902;13.606;2022-12-20T05:17:43;46;38;
49708;PMS5003;35601;55.902;13.606;2022-12-20T05:20:09;40;34;
49708;PMS5003;35601;55.902;13.606;2022-12-20T05:22:34;36;32;
49708;PMS5003;35601;55.902;13.606;2022-12-20T05:24:59;34;28;
49708;PMS5003;35601;55.902;13.606;2022-12-20T05:27:25;37;31;
49708;PMS5003;35601;55.902;13.606;2022-12-20T05:29:50;39;32;
49708;PMS5003;35601;55.902;13.606;2022-12-20T05:32:15;44;36;
49708;PMS5003;35601;55.902;13.606;2022-12-20T05:34:41;40;33;
49708;PMS5003;35601;55.902;13.606;2022-12-20T05:37:07;41;39;
49708;PMS5003;35601;55.902;13.606;2022-12-20T05:39:32;35;31;
49708;PMS5003;35601;55.902;13.606;2022-12-20T05:41:58;42;35;
49708;PMS5003;35601;55.902;13.606;2022-12-20T05:44:23;42;38;
49708;PMS5003;35601;55.902;13.606;2022-12-20T05:46:49;48;37;
49708;PMS5003;35601;55.902;13.606;2022-12-20T05:49:15;47;39;
49708;PMS5003;35601;55.902;13.606;2022-12-20T05:51:40;52;46;
49708;PMS5003;35601;55.902;13.606;2022-12-20T05:54:05;52;41;
49708;PMS5003;35601;55.902;13.606;2022-12-20T05:56:31;49;42;
49708;PMS5003;35601;55.902;13.606;2022-12-20T05:58:56;53;44;
49708;PMS5003;35601;55.902;13.606;2022-12-20T06:01:21;46;35;
49708;PMS5003;35601;55.902;13.606;2022-12-20T06:03:46;51;46;
49708;PMS5003;35601;55.902;13.606;2022-12-20T06:06:11;59;48;
49708;PMS5003;35601;55.902;13.606;2022-12-20T06:08:37;55;43;
49708;PMS5003;35601;55.902;13.606;2022-12-20T06:11:03;57;47;
49708;PMS5003;35601;55.902;13.606;2022-12-20T06:13:29;64;47;
49708;PMS5003;35601;55.902;13.606;2022-12-20T06:15:54;55;45;
49708;PMS5003;35601;55.902;13.606;2022-12-20T06:18:20;47;42;
49708;PMS5003;35601;55.902;13.606;2022-12-20T06:20:48;52;42;
49708;PMS5003;35601;55.902;13.606;2022-12-20T06:23:11;49;44;
49708;PMS5003;35601;55.902;13.606;2022-12-20T06:25:36;45;42;
49708;PMS5003;35601;55.902;13.606;2022-12-20T06:28:02;52;45;
49708;PMS5003;35601;55.902;13.606;2022-12-20T06:30:27;45;37;
49708;PMS5003;35601;55.902;13.606;2022-12-20T06:32:53;49;39;
49708;PMS5003;35601;55.902;13.606;2022-12-20T06:35:19;46;38;
49708;PMS5003;35601;55.902;13.606;2022-12-20T06:37:44;46;38;
49708;PMS5003;35601;55.902;13.606;2022-12-20T06:40:11;49;41;
49708;PMS5003;35601;55.902;13.606;2022-12-20T06:42:34;50;39;
49708;PMS5003;35601;55.902;13.606;2022-12-20T06:45:00;42;38;
49708;PMS5003;35601;55.902;13.606;2022-12-20T06:47:26;42;39;
49708;PMS5003;35601;55.902;13.606;2022-12-20T06:49:52;57;45;
49708;PMS5003;35601;55.902;13.606;2022-12-20T06:52:16;58;41;
49708;PMS5003;35601;55.902;13.606;2022-12-20T06:54:42;47;38;
49708;PMS5003;35601;55.902;13.606;2022-12-20T06:57:07;52;44;
49708;PMS5003;35601;55.902;13.606;2022-12-20T06:59:32;46;43;
49708;PMS5003;35601;55.902;13.606;2022-12-20T07:01:58;50;46;
49708;PMS5003;35601;55.902;13.606;2022-12-20T07:04:24;52;46;
49708;PMS5003;35601;55.902;13.606;2022-12-20T07:06:49;60;46;
49708;PMS5003;35601;55.902;13.606;2022-12-20T07:09:15;66;49;
49708;PMS5003;35601;55.902;13.606;2022-12-20T07:11:39;45;38;
49708;PMS5003;35601;55.902;13.606;2022-12-20T07:14:05;46;37;
49708;PMS5003;35601;55.902;13.606;2022-12-20T07:16:31;62;48;
49708;PMS5003;35601;55.902;13.606;2022-12-20T07:18:56;49;43;
49708;PMS5003;35601;55.902;13.606;2022-12-20T07:21:21;61;48;
49708;PMS5003;35601;55.902;13.606;2022-12-20T07:23:47;53;47;
49708;PMS5003;35601;55.902;13.606;2022-12-20T07:26:12;45;41;
49708;PMS5003;35601;55.902;13.606;2022-12-20T07:28:38;43;40;
49708;PMS5003;35601;55.902;13.606;2022-12-20T07:31:03;49;44;
49708;PMS5003;35601;55.902;13.606;2022-12-20T07:33:29;59;50;
49708;PMS5003;35601;55.902;13.606;2022-12-20T07:35:58;51;42;
49708;PMS5003;35601;55.902;13.606;2022-12-20T07:38:19;51;42;
49708;PMS5003;35601;55.902;13.606;2022-12-20T07:40:45;50;44;
49708;PMS5003;35601;55.902;13.606;2022-12-20T07:43:11;52;38;
49708;PMS5003;35601;55.902;13.606;2022-12-20T07:45:36;56;46;
49708;PMS5003;35601;55.902;13.606;2022-12-20T07:48:01;51;43;
49708;PMS5003;35601;55.902;13.606;2022-12-20T07:50:27;55;44;
49708;PMS5003;35601;55.902;13.606;2022-12-20T07:52:52;50;43;
49708;PMS5003;35601;55.902;13.606;2022-12-20T07:55:17;49;41;
49708;PMS5003;35601;55.902;13.606;2022-12-20T07:57:43;51;40;
49708;PMS5003;35601;55.902;13.606;2022-12-20T08:00:08;54;40;
49708;PMS5003;35601;55.902;13.606;2022-12-20T08:02:34;52;45;
49708;PMS5003;35601;55.902;13.606;2022-12-20T08:04:59;60;47;
49708;PMS5003;35601;55.902;13.606;2022-12-20T08:07:25;49;41;
49708;PMS5003;35601;55.902;13.606;2022-12-20T08:09:50;49;44;
49708;PMS5003;35601;55.902;13.606;2022-12-20T08:12:16;44;38;
49708;PMS5003;35601;55.902;13.606;2022-12-20T08:14:41;43;39;
49708;PMS5003;35601;55.902;13.606;2022-12-20T08:17:07;47;35;
49708;PMS5003;35601;55.902;13.606;2022-12-20T08:19:32;49;39;
49708;PMS5003;35601;55.902;13.606;2022-12-20T08:21:58;37;35;
49708;PMS5003;35601;55.902;13.606;2022-12-20T08:24:23;46;37;
49708;PMS5003;35601;55.902;13.606;2022-12-20T08:26:48;46;36;
49708;PMS5003;35601;55.902;13.606;2022-12-20T08:29:14;50;40;
49708;PMS5003;35601;55.902;13.606;2022-12-20T08:31:40;41;38;
49708;PMS5003;35601;55.902;13.606;2022-12-20T08:34:06;44;37;
49708;PMS5003;35601;55.902;13.606;2022-12-20T08:36:31;40;38;
49708;PMS5003;35601;55.902;13.606;2022-12-20T08:38:56;50;35;
49708;PMS5003;35601;55.902;13.606;2022-12-20T08:41:22;42;35;
49708;PMS5003;35601;55.902;13.606;2022-12-20T08:43:47;41;37;
49708;PMS5003;35601;55.902;13.606;2022-12-20T08:46:13;41;36;
49708;PMS5003;35601;55.902;13.606;2022-12-20T08:48:38;37;33;
49708;PMS5003;35601;55.902;13.606;2022-12-20T08:51:05;35;31;
49708;PMS5003;35601;55.902;13.606;2022-12-20T08:53:29;35;31;
49708;PMS5003;35601;55.902;13.606;2022-12-20T08:58:20;33;28;
49708;PMS5003;35601;55.902;13.606;2022-12-20T09:00:46;40;34;
49708;PMS5003;35601;55.902;13.606;2022-12-20T09:03:11;35;30;
49708;PMS5003;35601;55.902;13.606;2022-12-20T09:05:42;29;26;
49708;PMS5003;35601;55.902;13.606;2022-12-20T09:08:03;35;28;
49708;PMS5003;35601;55.902;13.606;2022-12-20T09:10:29;36;27;
49708;PMS5003;35601;55.902;13.606;2022-12-20T09:12:54;32;28;
49708;PMS5003;35601;55.902;13.606;2022-12-20T09:15:20;30;26;
49708;PMS5003;35601;55.902;13.606;2022-12-20T09:17:45;33;27;
49708;PMS5003;35601;55.902;13.606;2022-12-20T09:20:10;25;22;
49708;PMS5003;35601;55.902;13.606;2022-12-20T09:22:35;23;23;
49708;PMS5003;35601;55.902;13.606;2022-12-20T09:25:01;30;28;
49708;PMS5003;35601;55.902;13.606;2022-12-20T09:27:26;26;19;
49708;PMS5003;35601;55.902;13.606;2022-12-20T09:29:52;20;19;
49708;PMS5003;35601;55.902;13.606;2022-12-20T09:32:17;23;19;
49708;PMS5003;35601;55.902;13.606;2022-12-20T09:34:43;25;20;
49708;PMS5003;35601;55.902;13.606;2022-12-20T09:37:08;21;17;
49708;PMS5003;35601;55.902;13.606;2022-12-20T09:39:33;18;15;
49708;PMS5003;35601;55.902;13.606;2022-12-20T09:41:58;22;22;
49708;PMS5003;35601;55.902;13.606;2022-12-20T09:44:24;21;20;
49708;PMS5003;35601;55.902;13.606;2022-12-20T09:46:50;22;22;
49708;PMS5003;35601;55.902;13.606;2022-12-20T09:49:14;31;28;
49708;PMS5003;35601;55.902;13.606;2022-12-20T09:51:44;31;24;
49708;PMS5003;35601;55.902;13.606;2022-12-20T09:54:07;33;27;
49708;PMS5003;35601;55.902;13.606;2022-12-20T09:56:31;23;22;
49708;PMS5003;35601;55.902;13.606;2022-12-20T09:58:57;32;29;
49708;PMS5003;35601;55.902;13.606;2022-12-20T10:01:22;33;29;
49708;PMS5003;35601;55.902;13.606;2022-12-20T10:03:47;37;32;
49708;PMS5003;35601;55.902;13.606;2022-12-20T10:06:15;30;29;
49708;PMS5003;35601;55.902;13.606;2022-12-20T10:08:42;33;30;
49708;PMS5003;35601;55.902;13.606;2022-12-20T10:11:04;28;25;
49708;PMS5003;35601;55.902;13.606;2022-12-20T10:13:33;24;22;
49708;PMS5003;35601;55.902;13.606;2022-12-20T10:15:55;26;22;
49708;PMS5003;35601;55.902;13.606;2022-12-20T10:18:24;30;26;
49708;PMS5003;35601;55.902;13.606;2022-12-20T10:20:47;25;23;
49708;PMS5003;35601;55.902;13.606;2022-12-20T10:23:12;21;19;
49708;PMS5003;35601;55.902;13.606;2022-12-20T10:25:35;28;22;
49708;PMS5003;35601;55.902;13.606;2022-12-20T10:28:03;26;20;
49708;PMS5003;35601;55.902;13.606;2022-12-20T10:30:27;24;18;
49708;PMS5003;35601;55.902;13.606;2022-12-20T10:32:52;24;24;
49708;PMS5003;35601;55.902;13.606;2022-12-20T10:35:21;21;17;
49708;PMS5003;35601;55.902;13.606;2022-12-20T10:37:55;21;19;
49708;PMS5003;35601;55.902;13.606;2022-12-20T10:40:10;20;20;
49708;PMS5003;35601;55.902;13.606;2022-12-20T10:42:35;17;17;
49708;PMS5003;35601;55.902;13.606;2022-12-20T10:44:59;21;19;
49708;PMS5003;35601;55.902;13.606;2022-12-20T10:47:30;19;18;
49708;PMS5003;35601;55.902;13.606;2022-12-20T10:49:50;23;21;
49708;PMS5003;35601;55.902;13.606;2022-12-20T10:52:15;19;17;
49708;PMS5003;35601;55.902;13.606;2022-12-20T10:54:41;26;23;
49708;PMS5003;35601;55.902;13.606;2022-12-20T10:59:32;19;18;
49708;PMS5003;35601;55.902;13.606;2022-12-20T11:01:57;26;26;
49708;PMS5003;35601;55.902;13.606;2022-12-20T11:04:25;24;22;
49708;PMS5003;35601;55.902;13.606;2022-12-20T11:06:48;20;19;
49708;PMS5003;35601;55.902;13.606;2022-12-20T11:09:21;23;18;
49708;PMS5003;35601;55.902;13.606;2022-12-20T11:11:39;20;18;
49708;PMS5003;35601;55.902;13.606;2022-12-20T11:16:33;23;22;
49708;PMS5003;35601;55.902;13.606;2022-12-20T11:19:01;24;23;
49708;PMS5003;35601;55.902;13.606;2022-12-20T11:21:24;22;21;
49708;PMS5003;35601;55.902;13.606;2022-12-20T11:23:49;24;24;
49708;PMS5003;35601;55.902;13.606;2022-12-20T11:26:18;23;20;
49708;PMS5003;35601;55.902;13.606;2022-12-20T11:28:43;24;23;
49708;PMS5003;35601;55.902;13.606;2022-12-20T11:31:07;29;25;
49708;PMS5003;35601;55.902;13.606;2022-12-20T11:33:33;29;26;
49708;PMS5003;35601;55.902;13.606;2022-12-20T11:35:56;38;27;
49708;PMS5003;35601;55.902;13.606;2022-12-20T11:38:24;40;35;
49708;PMS5003;35601;55.902;13.606;2022-12-20T11:40:46;29;27;
49708;PMS5003;35601;55.902;13.606;2022-12-20T11:43:16;34;29;
49708;PMS5003;35601;55.902;13.606;2022-12-20T11:45:39;36;31;
49708;PMS5003;35601;55.902;13.606;2022-12-20T11:48:08;36;29;
49708;PMS5003;35601;55.902;13.606;2022-12-20T11:50:33;37;32;
49708;PMS5003;35601;55.902;13.606;2022-12-20T11:52:55;40;36;
49708;PMS5003;35601;55.902;13.606;2022-12-20T11:55:21;37;33;
49708;PMS5003;35601;55.902;13.606;2022-12-20T11:57:47;45;36;
49708;PMS5003;35601;55.902;13.606;2022-12-20T12:00:12;45;42;
49708;PMS5003;35601;55.902;13.606;2022-12-20T12:02:36;49;40;
49708;PMS5003;35601;55.902;13.606;2022-12-20T12:05:03;48;41;
49708;PMS5003;35601;55.902;13.606;2022-12-20T12:07:28;53;40;
49708;PMS5003;35601;55.902;13.606;2022-12-20T12:09:54;48;42;
49708;PMS5003;35601;55.902;13.606;2022-12-20T12:12:20;41;38;
49708;PMS5003;35601;55.902;13.606;2022-12-20T12:14:47;49;44;
49708;PMS5003;35601;55.902;13.606;2022-12-20T12:17:11;47;39;
49708;PMS5003;35601;55.902;13.606;2022-12-20T12:19:35;49;38;
49708;PMS5003;35601;55.902;13.606;2022-12-20T12:22:00;48;44;
49708;PMS5003;35601;55.902;13.606;2022-12-20T12:24:26;40;35;
49708;PMS5003;35601;55.902;13.606;2022-12-20T12:26:51;50;44;
49708;PMS5003;35601;55.902;13.606;2022-12-20T12:29:17;45;37;
49708;PMS5003;35601;55.902;13.606;2022-12-20T12:31:43;41;40;
49708;PMS5003;35601;55.902;13.606;2022-12-20T12:34:09;46;38;
49708;PMS5003;35601;55.902;13.606;2022-12-20T12:36:37;42;40;
49708;PMS5003;35601;55.902;13.606;2022-12-20T12:39:05;44;41;
49708;PMS5003;35601;55.902;13.606;2022-12-20T12:43:49;49;41;
49708;PMS5003;35601;55.902;13.606;2022-12-20T12:46:15;49;43;
49708;PMS5003;35601;55.902;13.606;2022-12-20T12:48:40;53;41;
49708;PMS5003;35601;55.902;13.606;2022-12-20T12:51:05;49;44;
49708;PMS5003;35601;55.902;13.606;2022-12-20T12:53:31;53;48;
49708;PMS5003;35601;55.902;13.606;2022-12-20T12:55:56;57;41;
49708;PMS5003;35601;55.902;13.606;2022-12-20T13:00:48;38;33;
49708;PMS5003;35601;55.902;13.606;2022-12-20T13:03:13;39;37;
49708;PMS5003;35601;55.902;13.606;2022-12-20T13:05:38;52;42;
49708;PMS5003;35601;55.902;13.606;2022-12-20T13:08:08;49;37;
49708;PMS5003;35601;55.902;13.606;2022-12-20T13:12:55;38;36;
49708;PMS5003;35601;55.902;13.606;2022-12-20T13:17:47;36;32;
49708;PMS5003;35601;55.902;13.606;2022-12-20T13:22:36;33;29;
49708;PMS5003;35601;55.902;13.606;2022-12-20T13:25:02;34;29;
49708;PMS5003;35601;55.902;13.606;2022-12-20T13:27:28;34;26;
49708;PMS5003;35601;55.902;13.606;2022-12-20T13:29:55;26;22;
49708;PMS5003;35601;55.902;13.606;2022-12-20T13:39:33;31;30;
49708;PMS5003;35601;55.902;13.606;2022-12-20T13:44:29;27;24;
49708;PMS5003;35601;55.902;13.606;2022-12-20T13:46:51;33;26;
49708;PMS5003;35601;55.902;13.606;2022-12-20T13:49:14;30;29;
49708;PMS5003;35601;55.902;13.606;2022-12-20T13:51:39;37;32;
49708;PMS5003;35601;55.902;13.606;2022-12-20T13:54:05;39;32;
49708;PMS5003;35601;55.902;13.606;2022-12-20T13:56:32;47;37;
49708;PMS5003;35601;55.902;13.606;2022-12-20T13:58:56;39;35;
49708;PMS5003;35601;55.902;13.606;2022-12-20T14:01:21;49;39;
49708;PMS5003;35601;55.902;13.606;2022-12-20T14:03:46;42;36;
49708;PMS5003;35601;55.902;13.606;2022-12-20T14:06:13;44;35;
49708;PMS5003;35601;55.902;13.606;2022-12-20T14:08:39;43;39;
49708;PMS5003;35601;55.902;13.606;2022-12-20T14:11:08;50;38;
49708;PMS5003;35601;55.902;13.606;2022-12-20T14:13:29;45;40;
49708;PMS5003;35601;55.902;13.606;2022-12-20T14:15:55;56;44;
49708;PMS5003;35601;55.902;13.606;2022-12-20T14:18:21;47;39;
49708;PMS5003;35601;55.902;13.606;2022-12-20T14:20:47;50;42;
49708;PMS5003;35601;55.902;13.606;2022-12-20T14:23:12;49;42;
49708;PMS5003;35601;55.902;13.606;2022-12-20T14:25:37;40;37;
49708;PMS5003;35601;55.902;13.606;2022-12-20T14:28:02;52;43;
49708;PMS5003;35601;55.902;13.606;2022-12-20T14:30:29;48;40;
49708;PMS5003;35601;55.902;13.606;2022-12-20T14:32:53;45;44;
49708;PMS5003;35601;55.902;13.606;2022-12-20T14:35:18;41;39;
49708;PMS5003;35601;55.902;13.606;2022-12-20T14:37:50;46;43;
49708;PMS5003;35601;55.902;13.606;2022-12-20T14:40:15;49;43;
49708;PMS5003;35601;55.902;13.606;2022-12-20T14:42:36;48;40;
49708;PMS5003;35601;55.902;13.606;2022-12-20T14:45:03;60;46;
49708;PMS5003;35601;55.902;13.606;2022-12-20T14:47:26;48;42;
49708;PMS5003;35601;55.902;13.606;2022-12-20T14:49:53;51;43;
49708;PMS5003;35601;55.902;13.606;2022-12-20T14:52:19;44;39;
49708;PMS5003;35601;55.902;13.606;2022-12-20T14:54:44;51;46;
49708;PMS5003;35601;55.902;13.606;2022-12-20T14:57:09;57;47;
49708;PMS5003;35601;55.902;13.606;2022-12-20T14:59:34;49;45;
49708;PMS5003;35601;55.902;13.606;2022-12-20T15:02:04;53;45;
49708;PMS5003;35601;55.902;13.606;2022-12-20T15:04:29;46;42;
49708;PMS5003;35601;55.902;13.606;2022-12-20T15:06:51;52;45;
49708;PMS5003;35601;55.902;13.606;2022-12-20T15:09:17;47;43;
49708;PMS5003;35601;55.902;13.606;2022-12-20T15:11:42;50;42;
49708;PMS5003;35601;55.902;13.606;2022-12-20T15:14:11;55;42;
49708;PMS5003;35601;55.902;13.606;2022-12-20T15:16:32;52;45;
49708;PMS5003;35601;55.902;13.606;2022-12-20T15:18:59;58;44;
49708;PMS5003;35601;55.902;13.606;2022-12-20T15:21:26;53;43;
49708;PMS5003;35601;55.902;13.606;2022-12-20T15:23:50;48;39;
49708;PMS5003;35601;55.902;13.606;2022-12-20T15:26:15;54;49;
49708;PMS5003;35601;55.902;13.606;2022-12-20T15:28:41;45;41;
49708;PMS5003;35601;55.902;13.606;2022-12-20T15:31:07;45;38;
49708;PMS5003;35601;55.902;13.606;2022-12-20T15:33:32;54;45;
49708;PMS5003;35601;55.902;13.606;2022-12-20T15:35:57;57;47;
49708;PMS5003;35601;55.902;13.606;2022-12-20T15:38:23;40;35;
49708;PMS5003;35601;55.902;13.606;2022-12-20T15:40:49;50;44;
49708;PMS5003;35601;55.902;13.606;2022-12-20T15:43:13;43;40;
49708;PMS5003;35601;55.902;13.606;2022-12-20T15:45:39;41;34;
49708;PMS5003;35601;55.902;13.606;2022-12-20T15:48:04;40;35;
49708;PMS5003;35601;55.902;13.606;2022-12-20T15:50:30;38;32;
49708;PMS5003;35601;55.902;13.606;2022-12-20T15:52:55;49;40;
49708;PMS5003;35601;55.902;13.606;2022-12-20T15:55:20;38;34;
49708;PMS5003;35601;55.902;13.606;2022-12-20T15:57:46;45;36;
49708;PMS5003;35601;55.902;13.606;2022-12-20T16:00:11;38;29;
49708;PMS5003;35601;55.902;13.606;2022-12-20T16:02:37;34;26;
49708;PMS5003;35601;55.902;13.606;2022-12-20T16:05:02;36;30;
49708;PMS5003;35601;55.902;13.606;2022-12-20T16:07:27;38;33;
49708;PMS5003;35601;55.902;13.606;2022-12-20T16:09:53;40;38;
49708;PMS5003;35601;55.902;13.606;2022-12-20T16:12:20;39;36;
49708;PMS5003;35601;55.902;13.606;2022-12-20T16:14:44;42;38;
49708;PMS5003;35601;55.902;13.606;2022-12-20T16:17:11;45;40;
49708;PMS5003;35601;55.902;13.606;2022-12-20T16:19:35;49;46;